sensor_id;sensor_type;location;lat;lon;timestamp;temperature;humidity
14771;DHT22;7477;45.222;5.688;2024-03-23T00:54:21;12.40;99.90
14771;DHT22;7477;45.222;5.688;2024-03-23T00:57:40;12.30;99.90
14771;DHT22;7477;45.222;5.688;2024-03-23T01:00:59;12.30;99.90
14771;DHT22;7477;45.222;5.688;2024-03-23T01:04:18;12.30;99.80
14771;DHT22;7477;45.222;5.688;2024-03-23T01:07:37;12.30;99.90
14771;DHT22;7477;45.222;5.688;2024-03-23T01:11:00;12.20;99.90
14771;DHT22;7477;45.222;5.688;2024-03-23T01:14:19;12.20;99.90
14771;DHT22;7477;45.222;5.688;2024-03-23T01:17:39;12.20;99.90
14771;DHT22;7477;45.222;5.688;2024-03-23T01:20:58;12.20;99.90
14771;DHT22;7477;45.222;5.688;2024-03-23T01:24:18;12.10;99.90
14771;DHT22;7477;45.222;5.688;2024-03-23T01:27:37;12.00;99.90
14771;DHT22;7477;45.222;5.688;2024-03-23T01:30:57;12.00;99.90
14771;DHT22;7477;45.222;5.688;2024-03-23T01:34:16;12.10;99.90
14771;DHT22;7477;45.222;5.688;2024-03-23T01:37:35;12.10;99.90
14771;DHT22;7477;45.222;5.688;2024-03-23T01:40:58;12.00;99.80
14771;DHT22;7477;45.222;5.688;2024-03-23T01:44:17;12.00;99.60
14771;DHT22;7477;45.222;5.688;2024-03-23T01:47:37;12.10;99.60
14771;DHT22;7477;45.222;5.688;2024-03-23T01:50:56;12.10;99.70
14771;DHT22;7477;45.222;5.688;2024-03-23T01:54:15;12.00;99.90
14771;DHT22;7477;45.222;5.688;2024-03-23T01:57:34;11.90;99.90
14771;DHT22;7477;45.222;5.688;2024-03-23T02:00:53;11.80;99.90
14771;DHT22;7477;45.222;5.688;2024-03-23T02:04:13;11.80;99.80
14771;DHT22;7477;45.222;5.688;2024-03-23T02:07:32;11.80;99.80
14771;DHT22;7477;45.222;5.688;2024-03-23T02:10:51;11.90;99.90
14771;DHT22;7477;45.222;5.688;2024-03-23T02:14:11;11.90;99.90
14771;DHT22;7477;45.222;5.688;2024-03-23T02:17:33;12.00;99.60
14771;DHT22;7477;45.222;5.688;2024-03-23T02:20:52;12.10;99.90
14771;DHT22;7477;45.222;5.688;2024-03-23T02:24:12;12.00;99.90
14771;DHT22;7477;45.222;5.688;2024-03-23T02:27:32;12.10;99.90
14771;DHT22;7477;45.222;5.688;2024-03-23T02:30:52;12.10;99.90
14771;DHT22;7477;45.222;5.688;2024-03-23T02:34:12;12.00;99.90
14771;DHT22;7477;45.222;5.688;2024-03-23T02:37:31;12.00;99.90
14771;DHT22;7477;45.222;5.688;2024-03-23T02:40:51;12.00;99.90
14771;DHT22;7477;45.222;5.688;2024-03-23T02:44:10;12.00;99.90
14771;DHT22;7477;45.222;5.688;2024-03-23T02:47:31;12.00;99.90
14771;DHT22;7477;45.222;5.688;2024-03-23T02:50:50;12.10;99.90
14771;DHT22;7477;45.222;5.688;2024-03-23T02:54:09;12.00;99.90
14771;DHT22;7477;45.222;5.688;2024-03-23T02:57:28;12.10;99.90
14771;DHT22;7477;45.222;5.688;2024-03-23T03:00:48;12.00;99.90
14771;DHT22;7477;45.222;5.688;2024-03-23T03:04:07;12.00;99.90
14771;DHT22;7477;45.222;5.688;2024-03-23T03:07:27;12.00;99.90
14771;DHT22;7477;45.222;5.688;2024-03-23T03:10:46;12.00;99.90
14771;DHT22;7477;45.222;5.688;2024-03-23T03:14:05;12.10;99.90
14771;DHT22;7477;45.222;5.688;2024-03-23T03:17:27;12.10;99.90
14771;DHT22;7477;45.222;5.688;2024-03-23T03:20:46;12.20;99.90
14771;DHT22;7477;45.222;5.688;2024-03-23T03:24:06;12.20;99.90
14771;DHT22;7477;45.222;5.688;2024-03-23T03:27:26;12.20;99.90
14771;DHT22;7477;45.222;5.688;2024-03-23T03:30:45;12.20;99.90
14771;DHT22;7477;45.222;5.688;2024-03-23T03:34:05;12.20;99.90
14771;DHT22;7477;45.222;5.688;2024-03-23T03:37:24;12.20;99.90
14771;DHT22;7477;45.222;5.688;2024-03-23T03:40:44;12.30;99.90
14771;DHT22;7477;45.222;5.688;2024-03-23T03:44:03;12.30;99.90
14771;DHT22;7477;45.222;5.688;2024-03-23T03:47:22;12.40;99.90
14771;DHT22;7477;45.222;5.688;2024-03-23T03:50:42;12.30;99.90
14771;DHT22;7477;45.222;5.688;2024-03-23T03:54:01;12.30;99.90
14771;DHT22;7477;45.222;5.688;2024-03-23T03:57:20;12.40;99.90
14771;DHT22;7477;45.222;5.688;2024-03-23T04:00:39;12.40;99.90
14771;DHT22;7477;45.222;5.688;2024-03-23T04:03:58;12.30;99.90
14771;DHT22;7477;45.222;5.688;2024-03-23T04:07:18;12.40;99.90
14771;DHT22;7477;45.222;5.688;2024-03-23T04:10:37;12.40;99.90
14771;DHT22;7477;45.222;5.688;2024-03-23T04:13:56;12.40;99.90
14771;DHT22;7477;45.222;5.688;2024-03-23T04:17:15;12.30;99.90
14771;DHT22;7477;45.222;5.688;2024-03-23T04:20:35;12.30;99.90
14771;DHT22;7477;45.222;5.688;2024-03-23T04:23:54;12.30;99.90
14771;DHT22;7477;45.222;5.688;2024-03-23T04:27:13;12.30;99.90
14771;DHT22;7477;45.222;5.688;2024-03-23T04:30:33;12.40;99.90
14771;DHT22;7477;45.222;5.688;2024-03-23T04:33:52;12.30;99.90
14771;DHT22;7477;45.222;5.688;2024-03-23T04:37:11;12.30;99.90
14771;DHT22;7477;45.222;5.688;2024-03-23T04:40:30;12.30;99.90
14771;DHT22;7477;45.222;5.688;2024-03-23T04:43:50;12.40;99.90
14771;DHT22;7477;45.222;5.688;2024-03-23T04:47:09;12.30;99.90
14771;DHT22;7477;45.222;5.688;2024-03-23T04:50:28;12.20;99.90
14771;DHT22;7477;45.222;5.688;2024-03-23T04:53:47;12.20;99.90
14771;DHT22;7477;45.222;5.688;2024-03-23T04:57:07;12.30;99.90
14771;DHT22;7477;45.222;5.688;2024-03-23T05:00:26;12.30;99.90
14771;DHT22;7477;45.222;5.688;2024-03-23T05:03:45;12.20;99.90
14771;DHT22;7477;45.222;5.688;2024-03-23T05:07:04;12.20;99.90
14771;DHT22;7477;45.222;5.688;2024-03-23T05:10:23;12.20;99.90
14771;DHT22;7477;45.222;5.688;2024-03-23T05:13:43;12.20;99.90
14771;DHT22;7477;45.222;5.688;2024-03-23T05:17:03;12.20;99.90
14771;DHT22;7477;45.222;5.688;2024-03-23T05:20:23;12.10;99.90
14771;DHT22;7477;45.222;5.688;2024-03-23T05:23:43;12.20;99.90
14771;DHT22;7477;45.222;5.688;2024-03-23T05:27:03;12.20;99.90
14771;DHT22;7477;45.222;5.688;2024-03-23T05:30:22;12.20;99.90
14771;DHT22;7477;45.222;5.688;2024-03-23T05:33:42;12.30;99.90
14771;DHT22;7477;45.222;5.688;2024-03-23T05:37:01;12.40;99.90
14771;DHT22;7477;45.222;5.688;2024-03-23T05:40:21;12.40;99.90
14771;DHT22;7477;45.222;5.688;2024-03-23T05:43:42;12.40;99.90
14771;DHT22;7477;45.222;5.688;2024-03-23T05:47:01;12.40;99.90
14771;DHT22;7477;45.222;5.688;2024-03-23T05:50:20;12.40;99.90
14771;DHT22;7477;45.222;5.688;2024-03-23T05:53:39;12.30;99.90
14771;DHT22;7477;45.222;5.688;2024-03-23T05:56:59;12.30;99.90
14771;DHT22;7477;45.222;5.688;2024-03-23T06:00:18;12.30;99.90
14771;DHT22;7477;45.222;5.688;2024-03-23T06:03:38;12.40;99.90
14771;DHT22;7477;45.222;5.688;2024-03-23T06:06:57;12.40;99.90
14771;DHT22;7477;45.222;5.688;2024-03-23T06:10:17;12.50;99.90
14771;DHT22;7477;45.222;5.688;2024-03-23T06:13:36;12.40;99.90
14771;DHT22;7477;45.222;5.688;2024-03-23T06:16:55;12.60;99.90
14771;DHT22;7477;45.222;5.688;2024-03-23T06:20:14;13.20;99.90
14771;DHT22;7477;45.222;5.688;2024-03-23T06:23:34;13.40;99.90
14771;DHT22;7477;45.222;5.688;2024-03-23T06:26:53;13.50;99.90
14771;DHT22;7477;45.222;5.688;2024-03-23T06:30:13;13.50;99.90
14771;DHT22;7477;45.222;5.688;2024-03-23T06:33:32;13.60;99.90
14771;DHT22;7477;45.222;5.688;2024-03-23T06:36:51;13.60;99.90
14771;DHT22;7477;45.222;5.688;2024-03-23T06:40:11;13.60;99.90
14771;DHT22;7477;45.222;5.688;2024-03-23T06:43:30;13.60;99.90
14771;DHT22;7477;45.222;5.688;2024-03-23T06:46:49;13.60;99.90
14771;DHT22;7477;45.222;5.688;2024-03-23T06:50:09;13.60;99.90
14771;DHT22;7477;45.222;5.688;2024-03-23T06:53:29;13.60;99.90
14771;DHT22;7477;45.222;5.688;2024-03-23T06:56:48;13.60;99.90
14771;DHT22;7477;45.222;5.688;2024-03-23T07:00:07;13.60;99.90
14771;DHT22;7477;45.222;5.688;2024-03-23T07:03:29;13.50;99.90
14771;DHT22;7477;45.222;5.688;2024-03-23T07:06:48;13.50;99.90
14771;DHT22;7477;45.222;5.688;2024-03-23T07:10:07;13.50;99.90
14771;DHT22;7477;45.222;5.688;2024-03-23T07:13:27;13.40;99.90
14771;DHT22;7477;45.222;5.688;2024-03-23T07:16:46;13.20;99.90
14771;DHT22;7477;45.222;5.688;2024-03-23T07:20:05;13.10;99.90
14771;DHT22;7477;45.222;5.688;2024-03-23T07:23:29;13.10;99.90
14771;DHT22;7477;45.222;5.688;2024-03-23T07:26:48;13.00;99.90
14771;DHT22;7477;45.222;5.688;2024-03-23T07:30:08;13.00;99.90
14771;DHT22;7477;45.222;5.688;2024-03-23T07:33:28;13.00;99.90
14771;DHT22;7477;45.222;5.688;2024-03-23T07:36:47;13.00;99.90
14771;DHT22;7477;45.222;5.688;2024-03-23T07:40:07;13.00;99.90
14771;DHT22;7477;45.222;5.688;2024-03-23T07:43:27;13.00;99.90
14771;DHT22;7477;45.222;5.688;2024-03-23T07:46:47;13.10;99.90
14771;DHT22;7477;45.222;5.688;2024-03-23T07:50:06;13.20;99.90
14771;DHT22;7477;45.222;5.688;2024-03-23T07:53:26;13.20;99.90
14771;DHT22;7477;45.222;5.688;2024-03-23T07:56:46;13.30;99.90
14771;DHT22;7477;45.222;5.688;2024-03-23T08:00:06;13.30;99.90
14771;DHT22;7477;45.222;5.688;2024-03-23T08:03:26;13.30;99.90
14771;DHT22;7477;45.222;5.688;2024-03-23T08:06:45;13.30;99.90
14771;DHT22;7477;45.222;5.688;2024-03-23T08:10:05;13.20;99.90
14771;DHT22;7477;45.222;5.688;2024-03-23T08:13:25;13.20;99.90
14771;DHT22;7477;45.222;5.688;2024-03-23T08:16:44;13.20;99.90
14771;DHT22;7477;45.222;5.688;2024-03-23T08:20:07;13.20;99.90
14771;DHT22;7477;45.222;5.688;2024-03-23T08:23:28;13.20;99.90
14771;DHT22;7477;45.222;5.688;2024-03-23T08:26:47;13.20;99.90
14771;DHT22;7477;45.222;5.688;2024-03-23T08:30:07;13.10;99.90
14771;DHT22;7477;45.222;5.688;2024-03-23T08:33:26;13.10;99.90
14771;DHT22;7477;45.222;5.688;2024-03-23T08:36:45;13.10;99.90
14771;DHT22;7477;45.222;5.688;2024-03-23T08:40:05;13.10;99.90
14771;DHT22;7477;45.222;5.688;2024-03-23T08:43:26;13.30;99.90
14771;DHT22;7477;45.222;5.688;2024-03-23T08:46:45;12.50;99.90
14771;DHT22;7477;45.222;5.688;2024-03-23T08:50:05;12.30;99.90
14771;DHT22;7477;45.222;5.688;2024-03-23T08:53:24;12.20;99.90
14771;DHT22;7477;45.222;5.688;2024-03-23T08:56:43;12.10;99.90
14771;DHT22;7477;45.222;5.688;2024-03-23T09:00:03;12.10;99.90
14771;DHT22;7477;45.222;5.688;2024-03-23T09:03:23;12.10;99.90
14771;DHT22;7477;45.222;5.688;2024-03-23T09:06:43;12.00;99.90
14771;DHT22;7477;45.222;5.688;2024-03-23T09:10:02;12.00;99.90
14771;DHT22;7477;45.222;5.688;2024-03-23T09:13:22;12.00;99.90
14771;DHT22;7477;45.222;5.688;2024-03-23T09:16:42;12.00;99.90
14771;DHT22;7477;45.222;5.688;2024-03-23T09:20:05;11.80;99.90
14771;DHT22;7477;45.222;5.688;2024-03-23T09:23:24;11.80;99.90
14771;DHT22;7477;45.222;5.688;2024-03-23T09:26:44;11.60;99.90
14771;DHT22;7477;45.222;5.688;2024-03-23T09:30:03;11.30;99.90
14771;DHT22;7477;45.222;5.688;2024-03-23T09:33:24;11.30;99.90
14771;DHT22;7477;45.222;5.688;2024-03-23T09:36:43;11.20;99.90
14771;DHT22;7477;45.222;5.688;2024-03-23T09:40:02;11.20;99.90
14771;DHT22;7477;45.222;5.688;2024-03-23T09:43:24;11.10;99.50
14771;DHT22;7477;45.222;5.688;2024-03-23T09:46:43;11.00;99.50
14771;DHT22;7477;45.222;5.688;2024-03-23T09:50:03;11.00;99.20
14771;DHT22;7477;45.222;5.688;2024-03-23T09:53:23;11.10;99.00
14771;DHT22;7477;45.222;5.688;2024-03-23T09:56:43;11.10;98.80
14771;DHT22;7477;45.222;5.688;2024-03-23T10:00:03;11.10;98.10
14771;DHT22;7477;45.222;5.688;2024-03-23T10:03:22;11.10;97.70
14771;DHT22;7477;45.222;5.688;2024-03-23T10:06:41;11.20;97.50
14771;DHT22;7477;45.222;5.688;2024-03-23T10:10:10;11.30;96.90
14771;DHT22;7477;45.222;5.688;2024-03-23T10:13:29;11.30;96.60
14771;DHT22;7477;45.222;5.688;2024-03-23T10:16:48;11.60;96.80
14771;DHT22;7477;45.222;5.688;2024-03-23T10:20:10;11.90;96.20
14771;DHT22;7477;45.222;5.688;2024-03-23T10:23:30;12.00;95.40
14771;DHT22;7477;45.222;5.688;2024-03-23T10:26:56;12.00;95.30
14771;DHT22;7477;45.222;5.688;2024-03-23T10:30:16;12.00;94.70
14771;DHT22;7477;45.222;5.688;2024-03-23T10:33:35;12.00;93.90
14771;DHT22;7477;45.222;5.688;2024-03-23T10:36:54;12.00;94.10
14771;DHT22;7477;45.222;5.688;2024-03-23T10:40:16;11.90;93.30
14771;DHT22;7477;45.222;5.688;2024-03-23T10:43:36;11.70;93.60
14771;DHT22;7477;45.222;5.688;2024-03-23T10:47:02;11.90;93.60
14771;DHT22;7477;45.222;5.688;2024-03-23T10:50:23;11.90;93.40
14771;DHT22;7477;45.222;5.688;2024-03-23T10:53:42;11.90;93.00
14771;DHT22;7477;45.222;5.688;2024-03-23T10:57:14;12.00;92.50
14771;DHT22;7477;45.222;5.688;2024-03-23T11:00:37;12.20;92.70
14771;DHT22;7477;45.222;5.688;2024-03-23T11:03:56;12.10;92.10
14771;DHT22;7477;45.222;5.688;2024-03-23T11:10:43;12.20;92.50
14771;DHT22;7477;45.222;5.688;2024-03-23T11:14:21;12.30;92.70
14771;DHT22;7477;45.222;5.688;2024-03-23T11:17:41;12.30;91.90
14771;DHT22;7477;45.222;5.688;2024-03-23T11:21:00;12.40;92.10
14771;DHT22;7477;45.222;5.688;2024-03-23T11:24:20;12.40;92.10
14771;DHT22;7477;45.222;5.688;2024-03-23T11:27:40;12.30;91.20
14771;DHT22;7477;45.222;5.688;2024-03-23T11:30:59;12.10;91.00
14771;DHT22;7477;45.222;5.688;2024-03-23T11:34:19;12.30;90.90
14771;DHT22;7477;45.222;5.688;2024-03-23T11:37:39;12.50;90.60
14771;DHT22;7477;45.222;5.688;2024-03-23T11:41:02;12.60;90.70
14771;DHT22;7477;45.222;5.688;2024-03-23T11:44:23;12.50;89.30
14771;DHT22;7477;45.222;5.688;2024-03-23T11:47:44;12.50;89.50
14771;DHT22;7477;45.222;5.688;2024-03-23T11:51:03;12.60;90.10
14771;DHT22;7477;45.222;5.688;2024-03-23T11:54:26;11.50;87.50
14771;DHT22;7477;45.222;5.688;2024-03-23T11:57:45;12.80;88.40
14771;DHT22;7477;45.222;5.688;2024-03-23T12:01:05;12.70;88.90
14771;DHT22;7477;45.222;5.688;2024-03-23T12:04:29;12.80;88.80
14771;DHT22;7477;45.222;5.688;2024-03-23T12:07:48;12.70;86.80
14771;DHT22;7477;45.222;5.688;2024-03-23T12:11:12;12.80;84.90
14771;DHT22;7477;45.222;5.688;2024-03-23T12:14:32;12.70;85.20
14771;DHT22;7477;45.222;5.688;2024-03-23T12:17:52;12.70;84.80
14771;DHT22;7477;45.222;5.688;2024-03-23T12:21:11;12.80;85.60
14771;DHT22;7477;45.222;5.688;2024-03-23T12:24:31;13.00;85.50
14771;DHT22;7477;45.222;5.688;2024-03-23T12:27:50;13.00;85.50
14771;DHT22;7477;45.222;5.688;2024-03-23T12:31:10;13.10;86.10
14771;DHT22;7477;45.222;5.688;2024-03-23T12:34:29;13.30;83.40
14771;DHT22;7477;45.222;5.688;2024-03-23T12:37:52;13.00;84.40
14771;DHT22;7477;45.222;5.688;2024-03-23T12:41:11;13.40;86.70
14771;DHT22;7477;45.222;5.688;2024-03-23T12:44:30;13.40;90.50
14771;DHT22;7477;45.222;5.688;2024-03-23T12:47:50;13.50;89.20
14771;DHT22;7477;45.222;5.688;2024-03-23T12:51:12;13.40;84.30
14771;DHT22;7477;45.222;5.688;2024-03-23T12:54:31;13.40;84.60
14771;DHT22;7477;45.222;5.688;2024-03-23T12:57:50;13.40;89.10
14771;DHT22;7477;45.222;5.688;2024-03-23T13:01:10;13.60;92.90
14771;DHT22;7477;45.222;5.688;2024-03-23T13:04:29;13.70;89.30
14771;DHT22;7477;45.222;5.688;2024-03-23T13:07:49;13.60;86.90
14771;DHT22;7477;45.222;5.688;2024-03-23T13:11:09;13.70;89.10
14771;DHT22;7477;45.222;5.688;2024-03-23T13:14:29;13.60;81.20
14771;DHT22;7477;45.222;5.688;2024-03-23T13:17:49;13.80;93.00
14771;DHT22;7477;45.222;5.688;2024-03-23T13:21:09;13.70;82.30
14771;DHT22;7477;45.222;5.688;2024-03-23T13:24:28;13.60;82.00
14771;DHT22;7477;45.222;5.688;2024-03-23T13:27:48;13.40;78.40
14771;DHT22;7477;45.222;5.688;2024-03-23T13:31:07;13.30;78.20
14771;DHT22;7477;45.222;5.688;2024-03-23T13:34:27;13.40;78.30
14771;DHT22;7477;45.222;5.688;2024-03-23T13:37:48;13.40;76.00
14771;DHT22;7477;45.222;5.688;2024-03-23T13:41:07;13.40;78.10
14771;DHT22;7477;45.222;5.688;2024-03-23T13:44:28;13.40;76.40
14771;DHT22;7477;45.222;5.688;2024-03-23T13:47:47;13.50;74.60
14771;DHT22;7477;45.222;5.688;2024-03-23T13:51:06;13.50;73.70
14771;DHT22;7477;45.222;5.688;2024-03-23T13:54:26;13.70;74.20
14771;DHT22;7477;45.222;5.688;2024-03-23T13:57:45;13.70;73.50
14771;DHT22;7477;45.222;5.688;2024-03-23T14:01:04;13.40;74.10
14771;DHT22;7477;45.222;5.688;2024-03-23T14:04:23;13.50;73.80
14771;DHT22;7477;45.222;5.688;2024-03-23T14:07:45;13.60;72.80
14771;DHT22;7477;45.222;5.688;2024-03-23T14:11:08;13.80;72.20
14771;DHT22;7477;45.222;5.688;2024-03-23T14:14:28;13.60;70.10
14771;DHT22;7477;45.222;5.688;2024-03-23T14:17:49;13.80;70.70
14771;DHT22;7477;45.222;5.688;2024-03-23T14:21:08;13.90;68.50
14771;DHT22;7477;45.222;5.688;2024-03-23T14:24:27;14.00;67.00
14771;DHT22;7477;45.222;5.688;2024-03-23T14:27:46;14.20;67.90
14771;DHT22;7477;45.222;5.688;2024-03-23T14:31:06;14.40;66.20
14771;DHT22;7477;45.222;5.688;2024-03-23T14:34:29;14.50;66.80
14771;DHT22;7477;45.222;5.688;2024-03-23T14:37:48;14.50;64.70
14771;DHT22;7477;45.222;5.688;2024-03-23T14:41:08;14.30;63.00
14771;DHT22;7477;45.222;5.688;2024-03-23T14:44:28;14.60;63.20
14771;DHT22;7477;45.222;5.688;2024-03-23T14:47:47;14.40;62.80
14771;DHT22;7477;45.222;5.688;2024-03-23T14:51:07;14.30;62.50
14771;DHT22;7477;45.222;5.688;2024-03-23T14:54:30;14.40;62.70
14771;DHT22;7477;45.222;5.688;2024-03-23T14:57:49;14.50;63.80
14771;DHT22;7477;45.222;5.688;2024-03-23T15:01:10;14.70;64.70
14771;DHT22;7477;45.222;5.688;2024-03-23T15:04:29;15.00;63.80
14771;DHT22;7477;45.222;5.688;2024-03-23T15:07:48;14.90;61.60
14771;DHT22;7477;45.222;5.688;2024-03-23T15:11:07;14.90;61.30
14771;DHT22;7477;45.222;5.688;2024-03-23T15:14:26;15.20;62.50
14771;DHT22;7477;45.222;5.688;2024-03-23T15:17:45;15.20;60.30
14771;DHT22;7477;45.222;5.688;2024-03-23T15:21:05;15.20;60.40
14771;DHT22;7477;45.222;5.688;2024-03-23T15:24:30;15.30;62.20
14771;DHT22;7477;45.222;5.688;2024-03-23T15:27:50;15.30;58.90
14771;DHT22;7477;45.222;5.688;2024-03-23T15:31:09;15.20;59.60
14771;DHT22;7477;45.222;5.688;2024-03-23T15:34:29;15.30;59.60
14771;DHT22;7477;45.222;5.688;2024-03-23T15:37:48;15.40;59.10
14771;DHT22;7477;45.222;5.688;2024-03-23T15:41:08;15.40;58.70
14771;DHT22;7477;45.222;5.688;2024-03-23T15:44:29;15.30;57.00
14771;DHT22;7477;45.222;5.688;2024-03-23T15:47:48;15.50;57.70
14771;DHT22;7477;45.222;5.688;2024-03-23T15:51:08;15.80;57.10
14771;DHT22;7477;45.222;5.688;2024-03-23T15:54:27;15.70;54.10
14771;DHT22;7477;45.222;5.688;2024-03-23T15:57:46;15.50;52.90
14771;DHT22;7477;45.222;5.688;2024-03-23T16:01:07;15.70;52.60
14771;DHT22;7477;45.222;5.688;2024-03-23T16:04:30;15.70;52.60
14771;DHT22;7477;45.222;5.688;2024-03-23T16:07:49;15.90;51.80
14771;DHT22;7477;45.222;5.688;2024-03-23T16:11:08;15.80;51.20
14771;DHT22;7477;45.222;5.688;2024-03-23T16:14:30;16.00;51.80
14771;DHT22;7477;45.222;5.688;2024-03-23T16:17:49;15.90;51.50
14771;DHT22;7477;45.222;5.688;2024-03-23T16:21:08;15.70;52.60
14771;DHT22;7477;45.222;5.688;2024-03-23T16:24:28;15.70;51.50
14771;DHT22;7477;45.222;5.688;2024-03-23T16:27:47;15.60;50.70
14771;DHT22;7477;45.222;5.688;2024-03-23T16:31:08;15.30;50.90
14771;DHT22;7477;45.222;5.688;2024-03-23T16:34:27;15.40;51.20
14771;DHT22;7477;45.222;5.688;2024-03-23T16:37:46;15.10;50.40
14771;DHT22;7477;45.222;5.688;2024-03-23T16:41:11;14.70;51.70
14771;DHT22;7477;45.222;5.688;2024-03-23T16:44:36;14.20;51.70
14771;DHT22;7477;45.222;5.688;2024-03-23T16:47:55;13.90;51.90
14771;DHT22;7477;45.222;5.688;2024-03-23T16:51:15;13.80;52.80
14771;DHT22;7477;45.222;5.688;2024-03-23T16:54:34;13.70;54.30
14771;DHT22;7477;45.222;5.688;2024-03-23T16:57:54;13.60;55.50
14771;DHT22;7477;45.222;5.688;2024-03-23T17:01:13;13.50;54.20
14771;DHT22;7477;45.222;5.688;2024-03-23T17:04:38;13.40;54.40
14771;DHT22;7477;45.222;5.688;2024-03-23T17:07:58;13.40;54.40
14771;DHT22;7477;45.222;5.688;2024-03-23T17:11:17;13.30;55.20
14771;DHT22;7477;45.222;5.688;2024-03-23T17:14:37;13.10;55.60
14771;DHT22;7477;45.222;5.688;2024-03-23T17:17:57;13.10;55.60
14771;DHT22;7477;45.222;5.688;2024-03-23T17:21:17;13.00;55.90
14771;DHT22;7477;45.222;5.688;2024-03-23T17:24:36;13.00;55.80
14771;DHT22;7477;45.222;5.688;2024-03-23T17:27:55;13.00;55.70
14771;DHT22;7477;45.222;5.688;2024-03-23T17:31:16;12.90;55.50
14771;DHT22;7477;45.222;5.688;2024-03-23T17:34:35;12.90;56.00
14771;DHT22;7477;45.222;5.688;2024-03-23T17:37:54;12.80;56.60
14771;DHT22;7477;45.222;5.688;2024-03-23T17:41:13;12.70;57.10
14771;DHT22;7477;45.222;5.688;2024-03-23T17:44:32;12.60;57.00
14771;DHT22;7477;45.222;5.688;2024-03-23T17:47:51;12.40;57.20
14771;DHT22;7477;45.222;5.688;2024-03-23T17:51:11;12.30;57.60
14771;DHT22;7477;45.222;5.688;2024-03-23T17:54:31;12.20;57.80
14771;DHT22;7477;45.222;5.688;2024-03-23T17:57:50;12.20;58.00
14771;DHT22;7477;45.222;5.688;2024-03-23T18:01:10;12.10;57.90
14771;DHT22;7477;45.222;5.688;2024-03-23T18:04:31;12.10;58.30
14771;DHT22;7477;45.222;5.688;2024-03-23T18:07:50;12.00;58.50
14771;DHT22;7477;45.222;5.688;2024-03-23T18:11:09;11.90;58.90
14771;DHT22;7477;45.222;5.688;2024-03-23T18:14:30;11.90;59.30
14771;DHT22;7477;45.222;5.688;2024-03-23T18:17:49;11.90;59.40
14771;DHT22;7477;45.222;5.688;2024-03-23T18:21:10;11.80;59.80
14771;DHT22;7477;45.222;5.688;2024-03-23T18:24:29;11.70;59.80
14771;DHT22;7477;45.222;5.688;2024-03-23T18:27:50;11.70;59.30
14771;DHT22;7477;45.222;5.688;2024-03-23T18:31:11;11.70;60.00
14771;DHT22;7477;45.222;5.688;2024-03-23T18:34:30;11.70;60.30
14771;DHT22;7477;45.222;5.688;2024-03-23T18:37:49;11.70;59.70
14771;DHT22;7477;45.222;5.688;2024-03-23T18:41:12;11.70;59.60
14771;DHT22;7477;45.222;5.688;2024-03-23T18:44:31;11.70;59.50
14771;DHT22;7477;45.222;5.688;2024-03-23T18:47:50;11.70;63.10
14771;DHT22;7477;45.222;5.688;2024-03-23T18:51:09;11.50;64.20
14771;DHT22;7477;45.222;5.688;2024-03-23T18:54:29;11.50;65.40
14771;DHT22;7477;45.222;5.688;2024-03-23T18:57:48;11.30;66.80
14771;DHT22;7477;45.222;5.688;2024-03-23T19:01:07;11.20;65.80
14771;DHT22;7477;45.222;5.688;2024-03-23T19:04:27;11.20;65.80
14771;DHT22;7477;45.222;5.688;2024-03-23T19:07:46;11.10;65.40
14771;DHT22;7477;45.222;5.688;2024-03-23T19:11:06;11.20;65.30
14771;DHT22;7477;45.222;5.688;2024-03-23T19:14:25;11.20;65.10
14771;DHT22;7477;45.222;5.688;2024-03-23T19:17:44;11.20;64.70
14771;DHT22;7477;45.222;5.688;2024-03-23T19:21:04;11.10;63.80
14771;DHT22;7477;45.222;5.688;2024-03-23T19:24:24;11.10;63.60
14771;DHT22;7477;45.222;5.688;2024-03-23T19:27:43;11.10;63.90
14771;DHT22;7477;45.222;5.688;2024-03-23T19:31:03;11.00;64.30
14771;DHT22;7477;45.222;5.688;2024-03-23T19:34:22;11.00;64.80
14771;DHT22;7477;45.222;5.688;2024-03-23T19:37:42;10.90;64.70
14771;DHT22;7477;45.222;5.688;2024-03-23T19:41:01;11.00;64.60
14771;DHT22;7477;45.222;5.688;2024-03-23T19:44:21;10.90;66.00
14771;DHT22;7477;45.222;5.688;2024-03-23T19:47:40;11.00;65.20
14771;DHT22;7477;45.222;5.688;2024-03-23T19:51:00;11.10;66.20
14771;DHT22;7477;45.222;5.688;2024-03-23T19:54:20;11.00;66.70
14771;DHT22;7477;45.222;5.688;2024-03-23T19:57:40;10.90;67.30
14771;DHT22;7477;45.222;5.688;2024-03-23T20:01:05;10.90;68.30
14771;DHT22;7477;45.222;5.688;2024-03-23T20:04:25;10.90;68.60
14771;DHT22;7477;45.222;5.688;2024-03-23T20:07:44;10.90;67.50
14771;DHT22;7477;45.222;5.688;2024-03-23T20:11:03;10.90;67.30
14771;DHT22;7477;45.222;5.688;2024-03-23T20:14:24;10.80;67.60
14771;DHT22;7477;45.222;5.688;2024-03-23T20:17:43;10.80;67.80
14771;DHT22;7477;45.222;5.688;2024-03-23T20:21:03;10.80;67.80
14771;DHT22;7477;45.222;5.688;2024-03-23T20:24:24;10.80;67.70
14771;DHT22;7477;45.222;5.688;2024-03-23T20:27:44;10.80;68.30
14771;DHT22;7477;45.222;5.688;2024-03-23T20:31:03;10.90;68.80
14771;DHT22;7477;45.222;5.688;2024-03-23T20:34:23;10.80;68.70
14771;DHT22;7477;45.222;5.688;2024-03-23T20:37:42;10.80;69.20
14771;DHT22;7477;45.222;5.688;2024-03-23T20:41:01;10.80;69.80
14771;DHT22;7477;45.222;5.688;2024-03-23T20:44:21;10.80;69.50
14771;DHT22;7477;45.222;5.688;2024-03-23T20:47:41;10.80;69.30
14771;DHT22;7477;45.222;5.688;2024-03-23T20:51:01;10.80;69.30
14771;DHT22;7477;45.222;5.688;2024-03-23T20:54:20;10.80;69.10
14771;DHT22;7477;45.222;5.688;2024-03-23T20:57:39;10.80;70.00
14771;DHT22;7477;45.222;5.688;2024-03-23T21:00:59;10.80;71.80
14771;DHT22;7477;45.222;5.688;2024-03-23T21:04:19;10.80;71.70
14771;DHT22;7477;45.222;5.688;2024-03-23T21:07:38;10.80;72.00
14771;DHT22;7477;45.222;5.688;2024-03-23T21:10:58;10.80;72.70
14771;DHT22;7477;45.222;5.688;2024-03-23T21:14:17;10.80;73.50
14771;DHT22;7477;45.222;5.688;2024-03-23T21:17:36;10.70;74.10
14771;DHT22;7477;45.222;5.688;2024-03-23T21:20:57;10.60;74.50
14771;DHT22;7477;45.222;5.688;2024-03-23T21:24:16;10.50;74.10
14771;DHT22;7477;45.222;5.688;2024-03-23T21:27:35;10.50;74.40
14771;DHT22;7477;45.222;5.688;2024-03-23T21:30:55;10.50;75.40
14771;DHT22;7477;45.222;5.688;2024-03-23T21:34:14;10.50;76.10
14771;DHT22;7477;45.222;5.688;2024-03-23T21:37:33;10.30;73.30
14771;DHT22;7477;45.222;5.688;2024-03-23T21:40:57;10.30;73.40
14771;DHT22;7477;45.222;5.688;2024-03-23T21:44:20;10.40;73.30
14771;DHT22;7477;45.222;5.688;2024-03-23T21:47:39;10.30;74.60
14771;DHT22;7477;45.222;5.688;2024-03-23T21:51:03;10.40;74.80
14771;DHT22;7477;45.222;5.688;2024-03-23T21:54:23;10.50;77.00
14771;DHT22;7477;45.222;5.688;2024-03-23T21:57:42;10.40;78.40
14771;DHT22;7477;45.222;5.688;2024-03-23T22:01:04;10.30;76.60
14771;DHT22;7477;45.222;5.688;2024-03-23T22:04:25;10.30;75.60
14771;DHT22;7477;45.222;5.688;2024-03-23T22:07:44;10.30;74.00
14771;DHT22;7477;45.222;5.688;2024-03-23T22:11:03;10.30;74.00
14771;DHT22;7477;45.222;5.688;2024-03-23T22:14:23;10.30;74.70
14771;DHT22;7477;45.222;5.688;2024-03-23T22:17:42;10.40;74.20